NCAR-RAP Real-Time Weather Data

Output produced by METARs form (10 April 2020  07:24 UTC)
found at http://weather.rap.ucar.edu/surface/
 
KELP 100651Z VRB03KT 10SM FEW120 20/M07 A3002 RMK AO2 SLP103 T02001072 402780189
KELP 100551Z 02005KT 10SM CLR 19/M06 A3002 RMK AO2 SLP101 T01941056 10261 20194 51013
KELP 100451Z 32007KT 10SM CLR 21/M06 A3001 RMK AO2 SLP101 T02061056
KELP 100351Z 30005KT 10SM CLR 22/M06 A3000 RMK AO2 SLP095 T02171061
KELP 100251Z 29008KT 10SM CLR 23/M06 A2997 RMK AO2 SLP086 T02281056 53011
KELP 100151Z 29010KT 10SM FEW120 24/M05 A2995 RMK AO2 SLP078 T02391050
KELP 100051Z 26010KT 10SM FEW120 25/M04 A2993 RMK AO2 SLP072 T02501044
KELP 092351Z 26011G21KT 10SM FEW100 26/M01 A2994 RMK AO2 SLP071 T02611011 10278 20233 56009
KELP 092251Z 25015G23KT 10SM SCT100 27/M01 A2994 RMK AO2 PK WND 25026/2206 SLP072 T02671011
KELP 092151Z 26014G20KT 10SM SCT100 27/M01 A2995 RMK AO2 SLP073 T02721011
KELP 092051Z 28011G19KT 10SM SCT090 26/01 A2997 RMK AO2 PK WND 26028/2030 SLP083 T02610006 58024
KELP 091951Z 26014G22KT 10SM SCT085 SCT250 26/02 A3000 RMK AO2 PK WND 25026/1929 SLP092 T02560022
KELP 091851Z 27011G18KT 10SM SCT080 SCT250 24/03 A3002 RMK AO2 SLP103 T02390033
KELP 091751Z 24018G23KT 10SM SCT070 BKN250 24/04 A3005 RMK AO2 SLP110 T02440044 10244 20194 58005
KELP 091651Z 24009KT 10SM FEW075 FEW130 BKN250 22/04 A3007 RMK AO2 SLP122 T02220044
KELP 091551Z 26008KT 10SM FEW075 SCT140 BKN240 21/04 A3007 RMK AO2 SLP124 SHRA DSNT NE-E T02110039
KELP 091451Z 28005KT 10SM FEW070 SCT140 BKN240 21/04 A3006 RMK AO2 SLP118 SHRA DSNT SE T02110039 51009
KELP 091351Z 27006KT 10SM FEW090 SCT130 BKN240 19/04 A3006 RMK AO2 SLP116 SHRA DSNT E-SE T01940039
KELP 091251Z 26010KT 10SM FEW090 FEW150 OVC200 19/04 A3005 RMK AO2 SLP111 BINOVC T01940039
KELP 091151Z 26013G20KT 10SM FEW090 FEW150 BKN200 20/04 A3003 RMK AO2 SLP104 T02000039 10217 20183 53005
KELP 091051Z 23009KT 10SM FEW090 FEW150 BKN200 20/03 A3003 RMK AO2 SLP102 T02000028
KELP 090951Z 24007KT 10SM FEW160 BKN200 21/02 A3002 RMK AO2 SLP099 T02060017